NCAR-RAP Real-Time Weather Data

Output produced by METARs form (08 May 2021  01:34 UTC)
found at http://weather.rap.ucar.edu/surface/
 
KBUR 080053Z 19010KT 10SM CLR 19/11 A2991 RMK AO2 SLP120 T01890106
KBUR 072353Z 18011KT 10SM CLR 20/11 A2993 RMK AO2 SLP124 T02000106 10222 20167 56013
KBUR 072253Z 18011KT 10SM CLR 21/10 A2993 RMK AO2 SLP125 T02060100
KBUR 072153Z 18011KT 10SM CLR 22/10 A2995 RMK AO2 SLP130 T02170100
KBUR 072053Z VRB06KT 10SM CLR 21/10 A2996 RMK AO2 SLP136 T02110100 58018
KBUR 071953Z 13009KT 10SM FEW025 19/11 A3000 RMK AO2 SLP148 T01890106
KBUR 071951Z 17009KT 140V200 10SM FEW025 19/11 A2999 RMK AO2
KBUR 071853Z VRB06KT 10SM OVC021 18/11 A3002 RMK AO2 SLP156 T01780106
KBUR 071753Z 15005KT 10SM OVC021 17/11 A3002 RMK AO2 SLP156 T01670106 10167 20144 50003
KBUR 071653Z 15004KT 10SM OVC019 16/11 A3002 RMK AO2 SLP157 T01610106
KBUR 071553Z 18005KT 10SM OVC018 16/11 A3002 RMK AO2 SLP158 T01560106
KBUR 071453Z 19004KT 10SM OVC019 15/11 A3001 RMK AO2 SLP154 T01500106 50008
KBUR 071353Z 20005KT 9SM OVC016 15/11 A3001 RMK AO2 SLP153 T01500106
KBUR 071253Z AUTO VRB05KT 9SM OVC014 15/11 A2999 RMK AO2 SLP146 T01500106